sensor_id;sensor_type;location;lat;lon;timestamp;temperature;humidity
2174;DHT22;1093;51.424;11.764;2023-08-01T00:01:00;18.30;1.40
2174;DHT22;1093;51.424;11.764;2023-08-01T00:03:26;18.30;1.40
2174;DHT22;1093;51.424;11.764;2023-08-01T00:05:53;18.30;1.40
2174;DHT22;1093;51.424;11.764;2023-08-01T00:08:21;18.30;1.40
2174;DHT22;1093;51.424;11.764;2023-08-01T00:10:48;18.30;1.40
2174;DHT22;1093;51.424;11.764;2023-08-01T00:13:15;18.30;1.40
2174;DHT22;1093;51.424;11.764;2023-08-01T00:15:42;18.30;1.40
2174;DHT22;1093;51.424;11.764;2023-08-01T00:18:10;18.30;1.40
2174;DHT22;1093;51.424;11.764;2023-08-01T00:20:36;18.30;1.40
2174;DHT22;1093;51.424;11.764;2023-08-01T00:23:05;18.20;1.40
2174;DHT22;1093;51.424;11.764;2023-08-01T00:25:31;18.30;1.40
2174;DHT22;1093;51.424;11.764;2023-08-01T00:27:58;18.20;1.40
2174;DHT22;1093;51.424;11.764;2023-08-01T00:30:25;18.20;1.40
2174;DHT22;1093;51.424;11.764;2023-08-01T00:32:52;18.20;1.40
2174;DHT22;1093;51.424;11.764;2023-08-01T00:35:21;18.20;1.40
2174;DHT22;1093;51.424;11.764;2023-08-01T00:37:47;18.10;1.40
2174;DHT22;1093;51.424;11.764;2023-08-01T00:40:14;18.10;1.40
2174;DHT22;1093;51.424;11.764;2023-08-01T00:42:42;18.10;1.40
2174;DHT22;1093;51.424;11.764;2023-08-01T00:45:10;18.10;1.40
2174;DHT22;1093;51.424;11.764;2023-08-01T00:47:38;18.10;1.40
2174;DHT22;1093;51.424;11.764;2023-08-01T00:50:06;18.10;1.40
2174;DHT22;1093;51.424;11.764;2023-08-01T00:52:34;18.10;1.40
2174;DHT22;1093;51.424;11.764;2023-08-01T00:55:01;18.10;1.40
2174;DHT22;1093;51.424;11.764;2023-08-01T00:57:29;18.10;1.40
2174;DHT22;1093;51.424;11.764;2023-08-01T00:59:56;18.00;1.40
2174;DHT22;1093;51.424;11.764;2023-08-01T01:02:23;18.00;1.40
2174;DHT22;1093;51.424;11.764;2023-08-01T01:04:50;18.10;1.40
2174;DHT22;1093;51.424;11.764;2023-08-01T01:07:17;18.10;1.40
2174;DHT22;1093;51.424;11.764;2023-08-01T01:09:45;18.10;1.40
2174;DHT22;1093;51.424;11.764;2023-08-01T01:12:12;18.10;1.40
2174;DHT22;1093;51.424;11.764;2023-08-01T01:14:39;18.10;1.40
2174;DHT22;1093;51.424;11.764;2023-08-01T01:17:06;18.20;1.40
2174;DHT22;1093;51.424;11.764;2023-08-01T01:19:33;18.20;1.40
2174;DHT22;1093;51.424;11.764;2023-08-01T01:22:02;18.20;1.40
2174;DHT22;1093;51.424;11.764;2023-08-01T01:24:30;18.20;1.40
2174;DHT22;1093;51.424;11.764;2023-08-01T01:26:59;18.20;1.40
2174;DHT22;1093;51.424;11.764;2023-08-01T01:29:26;18.20;1.40
2174;DHT22;1093;51.424;11.764;2023-08-01T01:31:53;18.20;1.40
2174;DHT22;1093;51.424;11.764;2023-08-01T01:34:21;18.20;1.40
2174;DHT22;1093;51.424;11.764;2023-08-01T01:36:50;18.20;1.40
2174;DHT22;1093;51.424;11.764;2023-08-01T01:39:18;18.20;1.40
2174;DHT22;1093;51.424;11.764;2023-08-01T01:41:45;18.10;1.40
2174;DHT22;1093;51.424;11.764;2023-08-01T01:44:12;18.10;1.40
2174;DHT22;1093;51.424;11.764;2023-08-01T01:46:39;18.10;1.40
2174;DHT22;1093;51.424;11.764;2023-08-01T01:49:06;18.00;1.40
2174;DHT22;1093;51.424;11.764;2023-08-01T01:51:33;18.00;1.40
2174;DHT22;1093;51.424;11.764;2023-08-01T01:54:00;18.00;1.40
2174;DHT22;1093;51.424;11.764;2023-08-01T01:56:28;18.00;1.40
2174;DHT22;1093;51.424;11.764;2023-08-01T01:58:55;18.00;1.40
2174;DHT22;1093;51.424;11.764;2023-08-01T02:01:22;18.00;1.40
2174;DHT22;1093;51.424;11.764;2023-08-01T02:03:48;18.00;1.40
2174;DHT22;1093;51.424;11.764;2023-08-01T02:06:15;18.00;1.40
2174;DHT22;1093;51.424;11.764;2023-08-01T02:08:42;17.90;1.40
2174;DHT22;1093;51.424;11.764;2023-08-01T02:11:09;17.90;1.40
2174;DHT22;1093;51.424;11.764;2023-08-01T02:13:37;17.90;1.40
2174;DHT22;1093;51.424;11.764;2023-08-01T02:16:04;17.90;1.40
2174;DHT22;1093;51.424;11.764;2023-08-01T02:18:31;17.90;1.40
2174;DHT22;1093;51.424;11.764;2023-08-01T02:20:57;17.90;1.40
2174;DHT22;1093;51.424;11.764;2023-08-01T02:23:24;17.90;1.40
2174;DHT22;1093;51.424;11.764;2023-08-01T02:25:51;17.80;1.40
2174;DHT22;1093;51.424;11.764;2023-08-01T02:28:18;17.90;1.40
2174;DHT22;1093;51.424;11.764;2023-08-01T02:30:46;17.90;1.40
2174;DHT22;1093;51.424;11.764;2023-08-01T02:33:13;17.90;1.40
2174;DHT22;1093;51.424;11.764;2023-08-01T02:35:40;17.90;1.40
2174;DHT22;1093;51.424;11.764;2023-08-01T02:38:07;17.90;1.40
2174;DHT22;1093;51.424;11.764;2023-08-01T02:40:34;17.80;1.40
2174;DHT22;1093;51.424;11.764;2023-08-01T02:43:00;17.80;1.40
2174;DHT22;1093;51.424;11.764;2023-08-01T02:45:27;17.70;1.40
2174;DHT22;1093;51.424;11.764;2023-08-01T02:47:55;17.70;1.40
2174;DHT22;1093;51.424;11.764;2023-08-01T02:50:22;17.70;1.40
2174;DHT22;1093;51.424;11.764;2023-08-01T02:52:49;17.70;1.40
2174;DHT22;1093;51.424;11.764;2023-08-01T02:55:16;17.70;1.40
2174;DHT22;1093;51.424;11.764;2023-08-01T02:57:43;17.70;1.40
2174;DHT22;1093;51.424;11.764;2023-08-01T03:00:11;17.70;1.40
2174;DHT22;1093;51.424;11.764;2023-08-01T03:02:38;17.70;1.40
2174;DHT22;1093;51.424;11.764;2023-08-01T03:05:08;17.70;1.40
2174;DHT22;1093;51.424;11.764;2023-08-01T03:07:36;17.70;1.40
2174;DHT22;1093;51.424;11.764;2023-08-01T03:10:03;17.70;1.40
2174;DHT22;1093;51.424;11.764;2023-08-01T03:12:32;17.70;1.40
2174;DHT22;1093;51.424;11.764;2023-08-01T03:14:59;17.70;1.40
2174;DHT22;1093;51.424;11.764;2023-08-01T03:17:25;17.70;1.40
2174;DHT22;1093;51.424;11.764;2023-08-01T03:19:52;17.70;1.40
2174;DHT22;1093;51.424;11.764;2023-08-01T03:22:21;17.70;1.40
2174;DHT22;1093;51.424;11.764;2023-08-01T03:24:48;17.70;1.40
2174;DHT22;1093;51.424;11.764;2023-08-01T03:27:15;17.70;1.40
2174;DHT22;1093;51.424;11.764;2023-08-01T03:29:42;17.80;1.40
2174;DHT22;1093;51.424;11.764;2023-08-01T03:32:09;17.80;1.40
2174;DHT22;1093;51.424;11.764;2023-08-01T03:34:36;17.80;1.40
2174;DHT22;1093;51.424;11.764;2023-08-01T03:37:04;17.80;1.40
2174;DHT22;1093;51.424;11.764;2023-08-01T03:39:32;17.80;1.40
2174;DHT22;1093;51.424;11.764;2023-08-01T03:41:59;17.80;1.40
2174;DHT22;1093;51.424;11.764;2023-08-01T03:44:26;17.70;1.40
2174;DHT22;1093;51.424;11.764;2023-08-01T03:46:53;17.70;1.40
2174;DHT22;1093;51.424;11.764;2023-08-01T03:49:20;17.80;1.40
2174;DHT22;1093;51.424;11.764;2023-08-01T03:51:47;17.70;1.40
2174;DHT22;1093;51.424;11.764;2023-08-01T03:54:14;17.70;1.40
2174;DHT22;1093;51.424;11.764;2023-08-01T03:56:42;17.80;1.40
2174;DHT22;1093;51.424;11.764;2023-08-01T03:59:10;17.80;1.40
2174;DHT22;1093;51.424;11.764;2023-08-01T04:01:37;17.80;1.40
2174;DHT22;1093;51.424;11.764;2023-08-01T04:04:04;17.80;1.40
2174;DHT22;1093;51.424;11.764;2023-08-01T04:06:32;17.80;1.40
2174;DHT22;1093;51.424;11.764;2023-08-01T04:08:59;17.80;1.40
2174;DHT22;1093;51.424;11.764;2023-08-01T04:11:26;17.70;1.40
2174;DHT22;1093;51.424;11.764;2023-08-01T04:13:56;17.80;1.40
2174;DHT22;1093;51.424;11.764;2023-08-01T04:16:23;17.70;1.40
2174;DHT22;1093;51.424;11.764;2023-08-01T04:18:50;17.70;1.40
2174;DHT22;1093;51.424;11.764;2023-08-01T04:21:20;17.70;1.40
2174;DHT22;1093;51.424;11.764;2023-08-01T04:23:46;17.70;1.40
2174;DHT22;1093;51.424;11.764;2023-08-01T04:26:13;17.80;1.40
2174;DHT22;1093;51.424;11.764;2023-08-01T04:28:40;17.80;1.40
2174;DHT22;1093;51.424;11.764;2023-08-01T04:31:09;17.80;1.40
2174;DHT22;1093;51.424;11.764;2023-08-01T04:33:35;17.80;1.40
2174;DHT22;1093;51.424;11.764;2023-08-01T04:36:03;17.80;1.40
2174;DHT22;1093;51.424;11.764;2023-08-01T04:38:30;17.80;1.40
2174;DHT22;1093;51.424;11.764;2023-08-01T04:40:56;17.80;1.40
2174;DHT22;1093;51.424;11.764;2023-08-01T04:43:23;17.80;1.40
2174;DHT22;1093;51.424;11.764;2023-08-01T04:45:50;17.80;1.40
2174;DHT22;1093;51.424;11.764;2023-08-01T04:48:19;17.80;1.40
2174;DHT22;1093;51.424;11.764;2023-08-01T04:50:46;17.80;1.40
2174;DHT22;1093;51.424;11.764;2023-08-01T04:53:13;17.80;1.40
2174;DHT22;1093;51.424;11.764;2023-08-01T04:55:40;17.80;1.40
2174;DHT22;1093;51.424;11.764;2023-08-01T04:58:07;17.80;1.40
2174;DHT22;1093;51.424;11.764;2023-08-01T05:00:34;17.80;1.40
2174;DHT22;1093;51.424;11.764;2023-08-01T05:03:01;17.80;1.40
2174;DHT22;1093;51.424;11.764;2023-08-01T05:05:29;17.70;1.40
2174;DHT22;1093;51.424;11.764;2023-08-01T05:07:56;17.80;1.40
2174;DHT22;1093;51.424;11.764;2023-08-01T05:10:22;17.80;1.40
2174;DHT22;1093;51.424;11.764;2023-08-01T05:12:49;17.70;1.40
2174;DHT22;1093;51.424;11.764;2023-08-01T05:15:16;17.70;1.40
2174;DHT22;1093;51.424;11.764;2023-08-01T05:17:43;17.70;1.40
2174;DHT22;1093;51.424;11.764;2023-08-01T05:20:11;17.70;1.40
2174;DHT22;1093;51.424;11.764;2023-08-01T05:22:39;17.70;1.40
2174;DHT22;1093;51.424;11.764;2023-08-01T05:25:06;17.70;1.40
2174;DHT22;1093;51.424;11.764;2023-08-01T05:27:33;17.70;1.40
2174;DHT22;1093;51.424;11.764;2023-08-01T05:30:00;17.70;1.40
2174;DHT22;1093;51.424;11.764;2023-08-01T05:32:27;17.70;1.40
2174;DHT22;1093;51.424;11.764;2023-08-01T05:34:54;17.70;1.40
2174;DHT22;1093;51.424;11.764;2023-08-01T05:37:20;17.70;1.40
2174;DHT22;1093;51.424;11.764;2023-08-01T05:39:49;17.70;1.40
2174;DHT22;1093;51.424;11.764;2023-08-01T05:42:18;17.70;1.40
2174;DHT22;1093;51.424;11.764;2023-08-01T05:44:44;17.70;1.40
2174;DHT22;1093;51.424;11.764;2023-08-01T05:47:11;17.70;1.40
2174;DHT22;1093;51.424;11.764;2023-08-01T05:49:38;17.70;1.40
2174;DHT22;1093;51.424;11.764;2023-08-01T05:52:07;17.70;1.40
2174;DHT22;1093;51.424;11.764;2023-08-01T05:54:34;17.70;1.40
2174;DHT22;1093;51.424;11.764;2023-08-01T05:57:02;17.70;1.40
2174;DHT22;1093;51.424;11.764;2023-08-01T05:59:29;17.70;1.40
2174;DHT22;1093;51.424;11.764;2023-08-01T06:01:56;17.70;1.40
2174;DHT22;1093;51.424;11.764;2023-08-01T06:04:23;17.70;1.40
2174;DHT22;1093;51.424;11.764;2023-08-01T06:06:50;17.70;1.40
2174;DHT22;1093;51.424;11.764;2023-08-01T06:09:16;17.70;1.40
2174;DHT22;1093;51.424;11.764;2023-08-01T06:15:07;17.80;1.40
2174;DHT22;1093;51.424;11.764;2023-08-01T06:17:34;17.80;1.40
2174;DHT22;1093;51.424;11.764;2023-08-01T06:20:01;17.80;1.40
2174;DHT22;1093;51.424;11.764;2023-08-01T06:22:29;17.80;1.40
2174;DHT22;1093;51.424;11.764;2023-08-01T06:24:56;17.80;1.40
2174;DHT22;1093;51.424;11.764;2023-08-01T06:27:24;17.80;1.40
2174;DHT22;1093;51.424;11.764;2023-08-01T06:29:51;17.80;1.40
2174;DHT22;1093;51.424;11.764;2023-08-01T06:32:19;17.80;1.40
2174;DHT22;1093;51.424;11.764;2023-08-01T06:34:46;17.80;1.40
2174;DHT22;1093;51.424;11.764;2023-08-01T06:37:13;17.80;1.40
2174;DHT22;1093;51.424;11.764;2023-08-01T06:39:39;17.80;1.40
2174;DHT22;1093;51.424;11.764;2023-08-01T06:42:06;17.80;1.40
2174;DHT22;1093;51.424;11.764;2023-08-01T06:44:33;17.80;1.40
2174;DHT22;1093;51.424;11.764;2023-08-01T06:47:00;17.80;1.40
2174;DHT22;1093;51.424;11.764;2023-08-01T06:49:28;17.80;1.40
2174;DHT22;1093;51.424;11.764;2023-08-01T06:51:55;17.90;1.40
2174;DHT22;1093;51.424;11.764;2023-08-01T06:54:22;17.90;1.40
2174;DHT22;1093;51.424;11.764;2023-08-01T06:56:49;17.90;1.40
2174;DHT22;1093;51.424;11.764;2023-08-01T06:59:15;17.90;1.40
2174;DHT22;1093;51.424;11.764;2023-08-01T07:01:43;17.90;1.40
2174;DHT22;1093;51.424;11.764;2023-08-01T07:04:10;17.90;1.40
2174;DHT22;1093;51.424;11.764;2023-08-01T07:06:38;17.90;1.40
2174;DHT22;1093;51.424;11.764;2023-08-01T07:09:05;17.80;1.40
2174;DHT22;1093;51.424;11.764;2023-08-01T07:11:32;17.80;1.40
2174;DHT22;1093;51.424;11.764;2023-08-01T07:13:59;17.80;1.40
2174;DHT22;1093;51.424;11.764;2023-08-01T07:16:26;17.80;1.40
2174;DHT22;1093;51.424;11.764;2023-08-01T07:18:53;17.70;1.40
2174;DHT22;1093;51.424;11.764;2023-08-01T07:21:19;17.70;1.40
2174;DHT22;1093;51.424;11.764;2023-08-01T07:23:47;17.80;1.40
2174;DHT22;1093;51.424;11.764;2023-08-01T07:26:14;17.80;1.40
2174;DHT22;1093;51.424;11.764;2023-08-01T07:28:41;17.70;1.40
2174;DHT22;1093;51.424;11.764;2023-08-01T07:31:08;17.80;1.40
2174;DHT22;1093;51.424;11.764;2023-08-01T07:33:35;17.80;1.40
2174;DHT22;1093;51.424;11.764;2023-08-01T07:36:03;17.80;1.40
2174;DHT22;1093;51.424;11.764;2023-08-01T07:38:29;17.80;1.40
2174;DHT22;1093;51.424;11.764;2023-08-01T07:41:02;17.80;1.40
2174;DHT22;1093;51.424;11.764;2023-08-01T07:43:29;17.80;1.40
2174;DHT22;1093;51.424;11.764;2023-08-01T07:45:56;17.80;1.40
2174;DHT22;1093;51.424;11.764;2023-08-01T07:48:23;17.90;1.40
2174;DHT22;1093;51.424;11.764;2023-08-01T07:50:50;17.90;1.40
2174;DHT22;1093;51.424;11.764;2023-08-01T07:53:17;17.80;1.40
2174;DHT22;1093;51.424;11.764;2023-08-01T07:55:44;17.80;1.40
2174;DHT22;1093;51.424;11.764;2023-08-01T07:58:12;17.70;1.40
2174;DHT22;1093;51.424;11.764;2023-08-01T08:00:39;17.80;1.40
2174;DHT22;1093;51.424;11.764;2023-08-01T08:03:06;17.90;1.40
2174;DHT22;1093;51.424;11.764;2023-08-01T08:05:33;17.90;1.40
2174;DHT22;1093;51.424;11.764;2023-08-01T08:08:04;18.00;1.40
2174;DHT22;1093;51.424;11.764;2023-08-01T08:10:30;17.90;1.40
2174;DHT22;1093;51.424;11.764;2023-08-01T08:12:57;18.00;1.40
2174;DHT22;1093;51.424;11.764;2023-08-01T08:15:26;18.00;1.40
2174;DHT22;1093;51.424;11.764;2023-08-01T08:17:53;18.00;1.40
2174;DHT22;1093;51.424;11.764;2023-08-01T08:20:19;18.00;1.40
2174;DHT22;1093;51.424;11.764;2023-08-01T08:22:46;18.00;1.40
2174;DHT22;1093;51.424;11.764;2023-08-01T08:25:13;18.10;1.40
2174;DHT22;1093;51.424;11.764;2023-08-01T08:27:40;18.20;1.40
2174;DHT22;1093;51.424;11.764;2023-08-01T08:30:08;18.20;1.40
2174;DHT22;1093;51.424;11.764;2023-08-01T08:32:36;18.20;1.40
2174;DHT22;1093;51.424;11.764;2023-08-01T08:35:04;18.20;1.40
2174;DHT22;1093;51.424;11.764;2023-08-01T08:37:31;18.30;1.40
2174;DHT22;1093;51.424;11.764;2023-08-01T08:39:57;18.30;1.40
2174;DHT22;1093;51.424;11.764;2023-08-01T08:42:24;18.30;1.40
2174;DHT22;1093;51.424;11.764;2023-08-01T08:44:56;18.40;1.40
2174;DHT22;1093;51.424;11.764;2023-08-01T08:47:25;18.40;1.40
2174;DHT22;1093;51.424;11.764;2023-08-01T08:49:56;18.40;1.40
2174;DHT22;1093;51.424;11.764;2023-08-01T08:52:24;18.40;1.40
2174;DHT22;1093;51.424;11.764;2023-08-01T08:54:51;18.40;1.40
2174;DHT22;1093;51.424;11.764;2023-08-01T08:57:19;18.40;1.40
2174;DHT22;1093;51.424;11.764;2023-08-01T08:59:46;18.50;1.40
2174;DHT22;1093;51.424;11.764;2023-08-01T09:02:15;18.50;1.40
2174;DHT22;1093;51.424;11.764;2023-08-01T09:04:41;18.50;1.40
2174;DHT22;1093;51.424;11.764;2023-08-01T09:07:11;18.50;1.40
2174;DHT22;1093;51.424;11.764;2023-08-01T09:09:41;18.50;1.40
2174;DHT22;1093;51.424;11.764;2023-08-01T09:12:09;18.60;1.40
2174;DHT22;1093;51.424;11.764;2023-08-01T09:14:36;18.70;1.40
2174;DHT22;1093;51.424;11.764;2023-08-01T09:17:07;18.80;1.40
2174;DHT22;1093;51.424;11.764;2023-08-01T09:19:34;18.80;1.40
2174;DHT22;1093;51.424;11.764;2023-08-01T09:22:01;18.80;1.40
2174;DHT22;1093;51.424;11.764;2023-08-01T09:24:30;18.80;1.40
2174;DHT22;1093;51.424;11.764;2023-08-01T09:27:02;18.90;1.40
2174;DHT22;1093;51.424;11.764;2023-08-01T09:29:30;18.90;1.40
2174;DHT22;1093;51.424;11.764;2023-08-01T09:31:58;19.00;1.40
2174;DHT22;1093;51.424;11.764;2023-08-01T09:34:26;19.00;1.40
2174;DHT22;1093;51.424;11.764;2023-08-01T09:36:58;19.00;1.40
2174;DHT22;1093;51.424;11.764;2023-08-01T09:39:25;19.00;1.40
2174;DHT22;1093;51.424;11.764;2023-08-01T09:41:57;19.10;1.40
2174;DHT22;1093;51.424;11.764;2023-08-01T09:44:25;19.10;1.40
2174;DHT22;1093;51.424;11.764;2023-08-01T09:46:56;19.20;1.40
2174;DHT22;1093;51.424;11.764;2023-08-01T09:49:23;19.20;1.40
2174;DHT22;1093;51.424;11.764;2023-08-01T09:51:50;19.20;1.40
2174;DHT22;1093;51.424;11.764;2023-08-01T09:54:18;19.20;1.40
2174;DHT22;1093;51.424;11.764;2023-08-01T09:56:47;19.20;1.40
2174;DHT22;1093;51.424;11.764;2023-08-01T09:59:19;19.20;1.40
2174;DHT22;1093;51.424;11.764;2023-08-01T10:01:48;19.20;1.40
2174;DHT22;1093;51.424;11.764;2023-08-01T10:04:18;19.20;1.40
2174;DHT22;1093;51.424;11.764;2023-08-01T10:06:48;19.20;1.40
2174;DHT22;1093;51.424;11.764;2023-08-01T10:09:16;19.20;1.40
2174;DHT22;1093;51.424;11.764;2023-08-01T10:11:44;19.30;1.40
2174;DHT22;1093;51.424;11.764;2023-08-01T10:14:11;19.30;1.40
2174;DHT22;1093;51.424;11.764;2023-08-01T10:16:40;19.30;1.40
2174;DHT22;1093;51.424;11.764;2023-08-01T10:19:09;19.40;1.40
2174;DHT22;1093;51.424;11.764;2023-08-01T10:21:37;19.30;1.40
2174;DHT22;1093;51.424;11.764;2023-08-01T10:24:06;19.30;1.40
2174;DHT22;1093;51.424;11.764;2023-08-01T10:26:33;19.30;1.40
2174;DHT22;1093;51.424;11.764;2023-08-01T10:29:00;19.40;1.40
2174;DHT22;1093;51.424;11.764;2023-08-01T10:31:28;19.40;1.40
2174;DHT22;1093;51.424;11.764;2023-08-01T10:34:05;19.40;1.40
2174;DHT22;1093;51.424;11.764;2023-08-01T10:36:32;19.40;1.40
2174;DHT22;1093;51.424;11.764;2023-08-01T10:39:01;19.40;1.40
2174;DHT22;1093;51.424;11.764;2023-08-01T10:41:29;19.50;1.40
2174;DHT22;1093;51.424;11.764;2023-08-01T10:44:08;19.60;1.40
2174;DHT22;1093;51.424;11.764;2023-08-01T10:46:48;19.60;1.40
2174;DHT22;1093;51.424;11.764;2023-08-01T10:49:18;19.60;1.40
2174;DHT22;1093;51.424;11.764;2023-08-01T10:51:45;19.60;1.40
2174;DHT22;1093;51.424;11.764;2023-08-01T10:54:22;19.70;1.40
2174;DHT22;1093;51.424;11.764;2023-08-01T10:56:50;19.80;1.40
2174;DHT22;1093;51.424;11.764;2023-08-01T10:59:18;19.90;1.40
2174;DHT22;1093;51.424;11.764;2023-08-01T11:01:48;20.00;1.40
2174;DHT22;1093;51.424;11.764;2023-08-01T11:04:18;20.00;1.40
2174;DHT22;1093;51.424;11.764;2023-08-01T11:06:46;20.10;1.40
2174;DHT22;1093;51.424;11.764;2023-08-01T11:09:18;20.10;1.40
2174;DHT22;1093;51.424;11.764;2023-08-01T11:15:08;20.40;1.40
2174;DHT22;1093;51.424;11.764;2023-08-01T11:17:36;20.40;1.40
2174;DHT22;1093;51.424;11.764;2023-08-01T11:20:07;20.50;1.40
2174;DHT22;1093;51.424;11.764;2023-08-01T11:22:34;20.50;1.40
2174;DHT22;1093;51.424;11.764;2023-08-01T11:25:04;20.70;1.40
2174;DHT22;1093;51.424;11.764;2023-08-01T11:27:31;20.90;1.40
2174;DHT22;1093;51.424;11.764;2023-08-01T11:29:58;21.00;1.40
2174;DHT22;1093;51.424;11.764;2023-08-01T11:32:34;21.00;1.40
2174;DHT22;1093;51.424;11.764;2023-08-01T11:35:02;21.10;1.40
2174;DHT22;1093;51.424;11.764;2023-08-01T11:37:31;21.20;1.40
2174;DHT22;1093;51.424;11.764;2023-08-01T11:39:59;21.30;1.40
2174;DHT22;1093;51.424;11.764;2023-08-01T11:42:30;21.40;1.40
2174;DHT22;1093;51.424;11.764;2023-08-01T11:45:07;21.50;1.40
2174;DHT22;1093;51.424;11.764;2023-08-01T11:47:34;21.70;1.40
2174;DHT22;1093;51.424;11.764;2023-08-01T11:50:02;21.80;1.40
2174;DHT22;1093;51.424;11.764;2023-08-01T11:52:31;21.90;1.40
2174;DHT22;1093;51.424;11.764;2023-08-01T11:54:57;22.00;1.40
2174;DHT22;1093;51.424;11.764;2023-08-01T11:57:24;22.20;1.40
2174;DHT22;1093;51.424;11.764;2023-08-01T11:59:54;22.20;1.40
2174;DHT22;1093;51.424;11.764;2023-08-01T12:02:22;22.30;1.40
2174;DHT22;1093;51.424;11.764;2023-08-01T12:04:50;22.40;1.40
2174;DHT22;1093;51.424;11.764;2023-08-01T12:07:17;22.60;1.40
2174;DHT22;1093;51.424;11.764;2023-08-01T12:09:56;22.70;1.40
2174;DHT22;1093;51.424;11.764;2023-08-01T12:12:25;22.80;1.40
2174;DHT22;1093;51.424;11.764;2023-08-01T12:14:52;22.90;1.40
2174;DHT22;1093;51.424;11.764;2023-08-01T12:17:19;23.00;1.40
2174;DHT22;1093;51.424;11.764;2023-08-01T12:19:46;23.10;1.40
2174;DHT22;1093;51.424;11.764;2023-08-01T12:22:13;23.00;1.40
2174;DHT22;1093;51.424;11.764;2023-08-01T12:24:41;23.10;1.40
2174;DHT22;1093;51.424;11.764;2023-08-01T12:27:09;23.30;1.40
2174;DHT22;1093;51.424;11.764;2023-08-01T12:29:36;23.40;1.40
2174;DHT22;1093;51.424;11.764;2023-08-01T12:32:04;23.40;1.40
2174;DHT22;1093;51.424;11.764;2023-08-01T12:34:33;23.40;1.40
2174;DHT22;1093;51.424;11.764;2023-08-01T12:37:01;23.50;1.40
2174;DHT22;1093;51.424;11.764;2023-08-01T12:39:28;23.50;1.40
2174;DHT22;1093;51.424;11.764;2023-08-01T12:41:54;23.50;1.40
2174;DHT22;1093;51.424;11.764;2023-08-01T12:44:23;23.50;1.40
2174;DHT22;1093;51.424;11.764;2023-08-01T12:46:50;23.50;1.40
2174;DHT22;1093;51.424;11.764;2023-08-01T12:49:18;23.50;1.40
2174;DHT22;1093;51.424;11.764;2023-08-01T12:51:44;23.50;1.40
2174;DHT22;1093;51.424;11.764;2023-08-01T12:54:11;23.50;1.40
2174;DHT22;1093;51.424;11.764;2023-08-01T12:56:38;23.50;1.40
2174;DHT22;1093;51.424;11.764;2023-08-01T12:59:05;23.50;1.40
2174;DHT22;1093;51.424;11.764;2023-08-01T13:01:33;23.60;1.40
2174;DHT22;1093;51.424;11.764;2023-08-01T13:04:00;23.70;1.40
2174;DHT22;1093;51.424;11.764;2023-08-01T13:06:27;23.80;1.40
2174;DHT22;1093;51.424;11.764;2023-08-01T13:08:54;23.80;1.40
2174;DHT22;1093;51.424;11.764;2023-08-01T13:11:21;23.70;1.40
2174;DHT22;1093;51.424;11.764;2023-08-01T13:13:47;23.70;1.40
2174;DHT22;1093;51.424;11.764;2023-08-01T13:16:14;23.70;1.40
2174;DHT22;1093;51.424;11.764;2023-08-01T13:18:43;23.80;1.40
2174;DHT22;1093;51.424;11.764;2023-08-01T13:21:12;23.80;1.40
2174;DHT22;1093;51.424;11.764;2023-08-01T13:23:39;23.80;1.40
2174;DHT22;1093;51.424;11.764;2023-08-01T13:26:05;23.70;1.40
2174;DHT22;1093;51.424;11.764;2023-08-01T13:28:32;23.70;1.40
2174;DHT22;1093;51.424;11.764;2023-08-01T13:30:59;23.60;1.40
2174;DHT22;1093;51.424;11.764;2023-08-01T13:33:26;23.70;1.40
2174;DHT22;1093;51.424;11.764;2023-08-01T13:35:54;23.70;1.40
2174;DHT22;1093;51.424;11.764;2023-08-01T13:38:23;23.70;1.40
2174;DHT22;1093;51.424;11.764;2023-08-01T13:40:50;23.70;1.40
2174;DHT22;1093;51.424;11.764;2023-08-01T13:43:16;23.80;1.40
2174;DHT22;1093;51.424;11.764;2023-08-01T13:45:43;23.90;1.40
2174;DHT22;1093;51.424;11.764;2023-08-01T13:48:10;24.00;1.40
2174;DHT22;1093;51.424;11.764;2023-08-01T13:50:37;24.00;1.40
2174;DHT22;1093;51.424;11.764;2023-08-01T13:53:05;24.00;1.40
2174;DHT22;1093;51.424;11.764;2023-08-01T13:55:35;24.10;1.40
2174;DHT22;1093;51.424;11.764;2023-08-01T13:58:02;24.30;1.40
2174;DHT22;1093;51.424;11.764;2023-08-01T14:00:29;24.50;1.40
2174;DHT22;1093;51.424;11.764;2023-08-01T14:02:56;24.60;1.40
2174;DHT22;1093;51.424;11.764;2023-08-01T14:05:24;24.70;1.40
2174;DHT22;1093;51.424;11.764;2023-08-01T14:07:51;24.80;1.40
2174;DHT22;1093;51.424;11.764;2023-08-01T14:10:20;24.90;1.40
2174;DHT22;1093;51.424;11.764;2023-08-01T14:12:47;25.00;1.40
2174;DHT22;1093;51.424;11.764;2023-08-01T14:15:14;25.10;1.40
2174;DHT22;1093;51.424;11.764;2023-08-01T14:17:41;25.30;1.40
2174;DHT22;1093;51.424;11.764;2023-08-01T14:20:08;25.20;1.40
2174;DHT22;1093;51.424;11.764;2023-08-01T14:22:35;25.30;1.40
2174;DHT22;1093;51.424;11.764;2023-08-01T14:25:03;25.30;1.40
2174;DHT22;1093;51.424;11.764;2023-08-01T14:27:31;25.30;1.40
2174;DHT22;1093;51.424;11.764;2023-08-01T14:29:58;25.30;1.40
2174;DHT22;1093;51.424;11.764;2023-08-01T14:32:25;25.30;1.40
2174;DHT22;1093;51.424;11.764;2023-08-01T14:34:52;25.30;1.40
2174;DHT22;1093;51.424;11.764;2023-08-01T14:37:19;25.20;1.40
2174;DHT22;1093;51.424;11.764;2023-08-01T14:39:49;25.20;1.40
2174;DHT22;1093;51.424;11.764;2023-08-01T14:42:16;25.20;1.40
2174;DHT22;1093;51.424;11.764;2023-08-01T14:44:44;25.00;1.40
2174;DHT22;1093;51.424;11.764;2023-08-01T14:47:11;24.90;1.40
2174;DHT22;1093;51.424;11.764;2023-08-01T14:49:38;24.90;1.40
2174;DHT22;1093;51.424;11.764;2023-08-01T14:52:06;24.80;1.40
2174;DHT22;1093;51.424;11.764;2023-08-01T14:54:33;24.80;1.40
2174;DHT22;1093;51.424;11.764;2023-08-01T14:57:00;24.70;1.40
2174;DHT22;1093;51.424;11.764;2023-08-01T14:59:27;24.70;1.40
2174;DHT22;1093;51.424;11.764;2023-08-01T15:01:55;24.60;1.40
2174;DHT22;1093;51.424;11.764;2023-08-01T15:04:22;24.60;1.40
2174;DHT22;1093;51.424;11.764;2023-08-01T15:06:49;24.60;1.40
2174;DHT22;1093;51.424;11.764;2023-08-01T15:09:16;24.60;1.40
2174;DHT22;1093;51.424;11.764;2023-08-01T15:11:45;24.50;1.40
2174;DHT22;1093;51.424;11.764;2023-08-01T15:14:11;24.40;1.40
2174;DHT22;1093;51.424;11.764;2023-08-01T15:16:38;24.30;1.40
2174;DHT22;1093;51.424;11.764;2023-08-01T15:19:06;24.20;1.40
2174;DHT22;1093;51.424;11.764;2023-08-01T15:21:33;24.00;1.40
2174;DHT22;1093;51.424;11.764;2023-08-01T15:24:00;24.00;1.40
2174;DHT22;1093;51.424;11.764;2023-08-01T15:26:27;23.90;1.40
2174;DHT22;1093;51.424;11.764;2023-08-01T15:28:54;23.80;1.40
2174;DHT22;1093;51.424;11.764;2023-08-01T15:31:21;23.70;1.40
2174;DHT22;1093;51.424;11.764;2023-08-01T15:33:48;23.60;1.40
2174;DHT22;1093;51.424;11.764;2023-08-01T15:36:16;23.50;1.40
2174;DHT22;1093;51.424;11.764;2023-08-01T15:38:43;23.50;1.40
2174;DHT22;1093;51.424;11.764;2023-08-01T15:41:10;23.40;1.40
2174;DHT22;1093;51.424;11.764;2023-08-01T15:43:38;23.50;1.40
2174;DHT22;1093;51.424;11.764;2023-08-01T15:46:06;23.50;1.40
2174;DHT22;1093;51.424;11.764;2023-08-01T15:48:34;23.70;1.40
2174;DHT22;1093;51.424;11.764;2023-08-01T15:51:03;23.70;1.40
2174;DHT22;1093;51.424;11.764;2023-08-01T15:53:31;23.60;1.40
2174;DHT22;1093;51.424;11.764;2023-08-01T15:55:59;23.50;1.40
2174;DHT22;1093;51.424;11.764;2023-08-01T15:58:28;23.50;1.40
2174;DHT22;1093;51.424;11.764;2023-08-01T16:00:55;23.40;1.40
2174;DHT22;1093;51.424;11.764;2023-08-01T16:03:22;23.40;1.40
2174;DHT22;1093;51.424;11.764;2023-08-01T16:05:49;23.30;1.40
2174;DHT22;1093;51.424;11.764;2023-08-01T16:08:16;23.30;1.40
2174;DHT22;1093;51.424;11.764;2023-08-01T16:10:45;23.20;1.40